createdAt,value
2019-05-20T00:00:52.948Z,1.77
2019-05-20T00:05:57.124Z,2.03
2019-05-20T00:11:01.347Z,1.83
2019-05-20T00:16:05.768Z,1.80
2019-05-20T00:21:10.783Z,1.77
2019-05-20T00:26:17.766Z,2.10
2019-05-20T00:31:21.899Z,1.83
2019-05-20T00:36:26.044Z,1.60
2019-05-20T00:41:30.169Z,2.20
2019-05-20T00:46:35.785Z,2.83
2019-05-20T00:51:40.305Z,1.60
2019-05-20T00:56:44.541Z,2.17
2019-05-20T01:01:48.833Z,1.80
2019-05-20T01:06:53.260Z,1.70
2019-05-20T01:11:57.640Z,1.97
2019-05-20T01:17:02.756Z,1.77
2019-05-20T01:22:07.608Z,1.87
2019-05-20T01:27:12.800Z,2.50
2019-05-20T01:32:17.353Z,1.70
2019-05-20T01:37:21.472Z,1.70
2019-05-20T01:42:25.625Z,1.57
2019-05-20T01:47:29.760Z,1.80
2019-05-20T01:52:33.975Z,1.63
2019-05-20T01:57:38.807Z,1.53
2019-05-20T02:02:43.051Z,1.40
2019-05-20T02:07:48.249Z,1.30
2019-05-20T02:12:53.192Z,1.33
2019-05-20T02:17:57.401Z,1.30
2019-05-20T02:23:16.618Z,1.33
2019-05-20T02:28:20.769Z,3.57
2019-05-20T02:33:26.962Z,1.60
2019-05-20T02:38:35.609Z,1.63
2019-05-20T02:43:39.752Z,1.20
2019-05-20T02:48:46.144Z,1.57
2019-05-20T02:53:50.262Z,1.70
2019-05-20T02:58:55.081Z,1.83
2019-05-20T03:04:10.575Z,1.67
2019-05-20T03:09:05.367Z,2.33
2019-05-20T03:14:09.570Z,1.77
2019-05-20T03:19:16.795Z,1.70
2019-05-20T03:24:20.651Z,1.80
2019-05-20T03:29:25.139Z,2.00
2019-05-20T03:34:54.173Z,1.83
2019-05-20T03:39:37.755Z,1.87
2019-05-20T03:44:41.872Z,1.70
2019-05-20T03:49:47.307Z,1.80
2019-05-20T03:54:53.284Z,2.00
2019-05-20T03:59:59.248Z,2.00
2019-05-20T04:05:04.564Z,1.87
2019-05-20T04:10:10.837Z,1.93
2019-05-20T04:15:14.947Z,2.20
2019-05-20T04:20:19.120Z,2.33
2019-05-20T04:25:23.550Z,2.20
2019-05-20T04:30:30.350Z,4.07
2019-05-20T04:35:34.459Z,2.97
2019-05-20T04:40:38.880Z,2.93
2019-05-20T04:45:43.240Z,2.70
2019-05-20T04:50:47.587Z,2.50
2019-05-20T04:55:51.784Z,2.83
2019-05-20T05:00:58.862Z,3.27
2019-05-20T05:06:03.048Z,5.17
2019-05-20T05:11:08.654Z,5.17
2019-05-20T05:16:12.883Z,4.33
2019-05-20T05:21:18.423Z,7.07
2019-05-20T05:26:22.588Z,8.00
2019-05-20T05:31:26.958Z,9.33
2019-05-20T05:36:31.313Z,10.83
2019-05-20T05:41:35.907Z,11.67
2019-05-20T05:46:41.644Z,10.57
2019-05-20T05:51:45.764Z,11.60
2019-05-20T05:56:50.139Z,15.43
2019-05-20T06:01:54.249Z,9.50
2019-05-20T06:07:00.223Z,12.70
2019-05-20T06:12:05.320Z,9.80
2019-05-20T06:17:09.492Z,12.07
2019-05-20T06:22:14.610Z,12.43
2019-05-20T06:27:18.915Z,9.93
2019-05-20T06:32:23.185Z,10.30
2019-05-20T06:37:29.047Z,10.43
2019-05-20T06:42:33.236Z,11.20
2019-05-20T06:47:37.383Z,10.50
2019-05-20T06:52:41.833Z,11.00
2019-05-20T06:57:45.950Z,9.97
2019-05-20T07:02:52.104Z,13.10
2019-05-20T07:07:57.778Z,12.20
2019-05-20T07:13:02.130Z,11.67
2019-05-20T07:18:07.498Z,10.70
2019-05-20T07:23:11.813Z,11.83
2019-05-20T07:28:16.104Z,13.10
2019-05-20T07:33:20.273Z,12.60
2019-05-20T07:38:24.394Z,10.57
2019-05-20T07:43:28.606Z,9.83
2019-05-20T07:48:40.225Z,11.27
2019-05-20T07:53:48.152Z,10.77
2019-05-20T07:58:54.408Z,11.83
2019-05-20T08:04:06.080Z,11.50
2019-05-20T08:09:20.889Z,10.43
2019-05-20T08:14:27.503Z,10.70
2019-05-20T08:19:39.240Z,10.70
2019-05-20T08:24:43.912Z,9.83
2019-05-20T08:29:48.090Z,9.00
2019-05-20T08:34:52.227Z,8.23
2019-05-20T08:39:56.605Z,9.83
2019-05-20T08:45:00.882Z,7.93
2019-05-20T08:50:09.842Z,8.10
2019-05-20T08:55:11.690Z,7.53
2019-05-20T09:00:23.498Z,7.30
2019-05-20T09:05:29.049Z,7.77
2019-05-20T09:10:33.211Z,7.70
2019-05-20T09:15:39.832Z,7.43
2019-05-20T09:20:43.984Z,8.03
2019-05-20T09:25:48.264Z,7.57
2019-05-20T09:30:53.853Z,7.53
2019-05-20T09:35:58.324Z,7.30
2019-05-20T09:41:08.080Z,7.77
2019-05-20T09:46:14.186Z,7.93
2019-05-20T09:51:18.345Z,8.03
2019-05-20T09:56:22.762Z,7.80
2019-05-20T10:01:27.424Z,7.53
2019-05-20T10:06:33.173Z,5.77
2019-05-20T10:11:37.573Z,6.67
2019-05-20T10:16:42.219Z,7.10
2019-05-20T10:21:47.832Z,7.07
2019-05-20T10:26:52.009Z,9.43
2019-05-20T10:31:56.728Z,8.63
2019-05-20T10:37:00.871Z,9.40
2019-05-20T10:42:06.716Z,9.93
2019-05-20T10:47:11.114Z,10.13
2019-05-20T10:52:15.341Z,12.07
2019-05-20T10:57:22.913Z,9.43
2019-05-20T11:02:31.255Z,9.30
2019-05-20T11:07:34.529Z,10.40
2019-05-20T11:12:38.759Z,10.47
2019-05-20T11:17:42.921Z,11.67
2019-05-20T11:23:00.864Z,11.47
2019-05-20T11:28:02.824Z,11.37
2019-05-20T11:33:08.066Z,9.57
2019-05-20T11:38:12.565Z,11.40
2019-05-20T11:43:17.848Z,14.20
2019-05-20T11:48:22.207Z,11.77
2019-05-20T11:53:26.359Z,11.43
2019-05-20T11:58:31.290Z,13.97
2019-05-20T12:03:40.228Z,13.00
2019-05-20T12:08:41.797Z,11.27
2019-05-20T12:13:46.111Z,12.00
2019-05-20T12:18:50.498Z,13.17
2019-05-20T12:23:54.634Z,10.70
2019-05-20T12:29:02.836Z,11.77
2019-05-20T12:34:07.209Z,12.10
2019-05-20T12:39:16.035Z,11.80
2019-05-20T12:44:20.413Z,12.83
2019-05-20T12:49:25.206Z,14.27
2019-05-20T12:54:29.394Z,12.60
2019-05-20T12:59:35.629Z,13.97
2019-05-20T13:04:40.021Z,14.00
2019-05-20T13:09:47.619Z,12.80
2019-05-20T13:14:53.024Z,13.00
2019-05-20T13:19:57.165Z,13.57
2019-05-20T13:25:02.718Z,14.80
2019-05-20T13:30:07.374Z,13.63
2019-05-20T13:35:11.605Z,14.07
2019-05-20T13:40:17.023Z,15.67
2019-05-20T13:45:21.583Z,19.00
2019-05-20T13:50:25.803Z,18.37
2019-05-20T13:55:30.200Z,22.60
2019-05-20T14:00:34.439Z,20.57
2019-05-20T14:05:38.612Z,23.27
2019-05-20T14:10:42.818Z,21.20
2019-05-20T14:15:47.193Z,16.33
2019-05-20T14:20:51.698Z,22.33
2019-05-20T14:25:56.595Z,22.13
2019-05-20T14:31:05.461Z,20.97
2019-05-20T14:36:08.677Z,22.90
2019-05-20T14:41:21.475Z,23.63
2019-05-20T14:46:20.002Z,18.63
2019-05-20T14:51:24.667Z,23.13
2019-05-20T14:56:30.279Z,22.00
2019-05-20T15:01:36.241Z,20.43
2019-05-20T15:06:40.381Z,19.27
2019-05-20T15:11:44.807Z,20.93
2019-05-20T15:16:50.514Z,21.27
2019-05-20T15:21:55.923Z,19.60
2019-05-20T15:27:00.199Z,19.77
2019-05-20T15:32:04.409Z,17.40
2019-05-20T15:37:08.824Z,18.60
2019-05-20T15:42:13.263Z,20.60
2019-05-20T15:47:18.897Z,20.93
2019-05-20T15:52:23.733Z,19.00
2019-05-20T15:57:27.861Z,18.27
2019-05-20T16:02:32.244Z,19.90
2019-05-20T16:07:37.376Z,17.87
2019-05-20T16:12:41.834Z,20.27
2019-05-20T16:17:48.488Z,18.37
2019-05-20T16:22:52.530Z,17.97
2019-05-20T16:27:56.689Z,23.07
2019-05-20T16:33:00.898Z,20.03
2019-05-20T16:38:06.073Z,23.07
2019-05-20T16:43:10.543Z,24.13
2019-05-20T16:48:14.921Z,18.20
2019-05-20T16:53:19.046Z,20.60
2019-05-20T16:58:27.864Z,20.53
2019-05-20T17:03:30.404Z,19.63
2019-05-20T17:08:34.640Z,20.73
2019-05-20T17:13:38.824Z,20.40
2019-05-20T17:18:43.177Z,20.23
2019-05-20T17:23:47.550Z,16.27
2019-05-20T17:28:52.895Z,21.43
2019-05-20T17:33:57.114Z,19.87
2019-05-20T17:39:10.055Z,17.80
2019-05-20T17:44:14.757Z,18.53
2019-05-20T17:49:18.967Z,18.70
2019-05-20T17:54:24.899Z,20.27
2019-05-20T17:59:29.254Z,18.90
2019-05-20T18:04:33.662Z,16.43
2019-05-20T18:09:42.028Z,16.53
2019-05-20T18:14:51.532Z,17.30
2019-05-20T18:19:57.348Z,17.20
2019-05-20T18:25:02.767Z,18.03
2019-05-20T18:30:08.361Z,15.93
2019-05-20T18:35:12.571Z,21.93
2019-05-20T18:40:16.789Z,18.37
2019-05-20T18:45:20.920Z,20.60
2019-05-20T18:50:26.480Z,17.73
2019-05-20T18:55:34.309Z,20.70
2019-05-20T19:00:36.803Z,21.27
2019-05-20T19:05:41.235Z,20.20
2019-05-20T19:10:45.416Z,21.73
2019-05-20T19:15:49.891Z,19.13
2019-05-20T19:20:55.220Z,18.03
2019-05-20T19:26:00.901Z,19.27
2019-05-20T19:31:07.946Z,21.30
2019-05-20T19:36:12.000Z,21.30
2019-05-20T19:41:19.940Z,22.03
2019-05-20T19:46:24.334Z,22.87
2019-05-20T19:51:30.701Z,20.23
2019-05-20T19:56:35.438Z,19.73
2019-05-20T20:01:39.615Z,23.70
2019-05-20T20:06:44.070Z,21.57
2019-05-20T20:11:48.507Z,21.93
2019-05-20T20:16:52.873Z,22.47
2019-05-20T20:21:56.998Z,22.67
2019-05-20T20:27:01.774Z,22.07
2019-05-20T20:32:06.248Z,25.03
2019-05-20T20:37:11.049Z,26.27
2019-05-20T20:42:15.630Z,25.40
2019-05-20T20:47:21.412Z,26.23
2019-05-20T20:52:26.036Z,26.40
2019-05-20T20:57:35.646Z,27.93
2019-05-20T21:02:52.939Z,27.87
2019-05-20T21:07:51.509Z,29.53
2019-05-20T21:12:54.155Z,31.57
2019-05-20T21:17:58.288Z,28.20
2019-05-20T21:23:03.979Z,27.87
2019-05-20T21:28:08.140Z,24.87
2019-05-20T21:33:12.517Z,32.17
2019-05-20T21:38:16.891Z,27.33
2019-05-20T21:43:22.999Z,31.43
2019-05-20T21:48:27.411Z,23.87
2019-05-20T21:53:31.766Z,24.93
2019-05-20T21:58:36.425Z,27.17
2019-05-20T22:03:41.708Z,26.60
2019-05-20T22:08:47.944Z,24.63
2019-05-20T22:13:52.605Z,25.40
2019-05-20T22:18:59.182Z,23.10
2019-05-20T22:24:05.679Z,23.83
2019-05-20T22:29:10.899Z,20.20
2019-05-20T22:34:15.075Z,20.57
2019-05-20T22:39:20.396Z,23.50
2019-05-20T22:44:25.653Z,19.57
2019-05-20T22:49:33.205Z,19.27
2019-05-20T22:54:39.022Z,18.33
2019-05-20T22:59:43.152Z,19.20
2019-05-20T23:04:47.705Z,17.57
2019-05-20T23:09:54.146Z,13.63
2019-05-20T23:14:58.280Z,16.10
2019-05-20T23:20:02.491Z,14.83
2019-05-20T23:25:06.626Z,12.90
2019-05-20T23:30:11.125Z,12.37
2019-05-20T23:35:15.559Z,11.67
2019-05-20T23:40:19.670Z,13.60
2019-05-20T23:45:23.797Z,13.10
2019-05-20T23:50:28.247Z,13.27
2019-05-20T23:55:32.395Z,11.93
